createdAt,value
2018-08-31T00:04:40.959Z,5.20
2018-08-31T00:12:02.383Z,5.70
2018-08-31T00:17:06.352Z,5.13
2018-08-31T00:22:09.464Z,5.80
2018-08-31T00:27:23.844Z,6.17
2018-08-31T00:34:43.241Z,4.43
2018-08-31T00:41:59.888Z,5.67
2018-08-31T00:47:03.008Z,6.00
2018-08-31T00:52:06.129Z,5.00
2018-08-31T00:57:09.245Z,5.27
2018-08-31T01:02:12.932Z,4.85
2018-08-31T01:07:16.045Z,5.42
2018-08-31T01:12:19.161Z,5.00
2018-08-31T01:17:22.296Z,5.80
2018-08-31T01:22:25.415Z,5.20
2018-08-31T01:27:28.544Z,5.77
2018-08-31T01:32:31.664Z,6.03
2018-08-31T01:37:34.865Z,5.90
2018-08-31T01:42:38.054Z,4.53
2018-08-31T01:47:41.192Z,6.20
2018-08-31T01:52:44.334Z,4.00
2018-08-31T01:57:47.487Z,4.90
2018-08-31T02:02:50.593Z,4.50
2018-08-31T02:07:53.712Z,4.90
2018-08-31T02:12:56.866Z,4.83
2018-08-31T02:17:59.948Z,4.97
2018-08-31T02:23:03.093Z,5.27
2018-08-31T02:28:06.407Z,5.20
2018-08-31T02:33:09.514Z,6.07
2018-08-31T02:38:12.628Z,5.63
2018-08-31T02:43:15.740Z,5.60
2018-08-31T02:48:18.844Z,5.77
2018-08-31T02:53:21.956Z,6.72
2018-08-31T02:58:25.072Z,6.37
2018-08-31T03:03:28.188Z,5.47
2018-08-31T03:08:31.297Z,5.00
2018-08-31T03:13:34.414Z,5.00
2018-08-31T03:18:37.521Z,7.10
2018-08-31T03:23:40.634Z,6.90
2018-08-31T03:28:43.757Z,6.60
2018-08-31T03:33:46.869Z,5.53
2018-08-31T03:38:49.975Z,5.90
2018-08-31T03:43:53.092Z,6.20
2018-08-31T03:48:56.195Z,7.00
2018-08-31T03:53:59.308Z,6.07
2018-08-31T03:59:02.425Z,5.50
2018-08-31T04:04:05.708Z,6.80
2018-08-31T04:09:08.888Z,6.80
2018-08-31T04:14:12.134Z,7.28
2018-08-31T04:19:17.476Z,7.43
2018-08-31T04:24:20.574Z,6.63
2018-08-31T04:29:23.687Z,6.63
2018-08-31T04:34:26.816Z,7.00
2018-08-31T04:44:33.649Z,6.63
2018-08-31T04:49:36.756Z,5.40
2018-08-31T04:54:39.864Z,5.23
2018-08-31T04:59:42.973Z,5.97
2018-08-31T05:04:46.094Z,5.73
2018-08-31T05:09:49.205Z,6.33
2018-08-31T05:14:52.327Z,7.33
2018-08-31T05:19:55.441Z,5.90
2018-08-31T05:24:58.563Z,5.50
2018-08-31T05:30:01.702Z,6.47
2018-08-31T05:35:05.596Z,6.55
2018-08-31T05:40:08.733Z,7.70
2018-08-31T05:45:11.838Z,6.60
2018-08-31T05:50:15.089Z,5.30
2018-08-31T05:55:18.216Z,5.87
2018-08-31T06:00:21.339Z,7.00
2018-08-31T06:05:24.548Z,5.30
2018-08-31T06:10:27.682Z,4.43
2018-08-31T06:15:30.811Z,7.10
2018-08-31T06:20:33.930Z,6.47
2018-08-31T06:25:37.056Z,5.40
2018-08-31T06:30:40.176Z,5.13
2018-08-31T06:35:43.284Z,4.87
2018-08-31T06:40:46.475Z,6.00
2018-08-31T06:45:49.557Z,5.07
2018-08-31T06:50:52.665Z,7.03
2018-08-31T06:55:55.777Z,5.65
2018-08-31T07:00:58.930Z,6.40
2018-08-31T07:06:02.143Z,6.47
2018-08-31T07:11:05.507Z,6.10
2018-08-31T07:16:08.620Z,5.30
2018-08-31T07:21:11.758Z,6.40
2018-08-31T07:26:14.876Z,5.77
2018-08-31T07:31:17.984Z,5.90
2018-08-31T07:36:21.191Z,5.80
2018-08-31T07:41:24.220Z,5.57
2018-08-31T07:46:27.346Z,5.63
2018-08-31T07:51:30.557Z,5.90
2018-08-31T07:56:33.668Z,6.27
2018-08-31T08:01:36.784Z,5.20
2018-08-31T08:06:39.917Z,5.90
2018-08-31T08:11:43.031Z,6.20
2018-08-31T08:16:46.143Z,5.20
2018-08-31T08:21:49.267Z,6.17
2018-08-31T08:26:52.392Z,5.40
2018-08-31T08:31:55.504Z,6.20
2018-08-31T08:36:58.625Z,6.17
2018-08-31T08:42:01.811Z,7.10
2018-08-31T08:47:05.684Z,6.93
2018-08-31T08:52:08.797Z,5.37
2018-08-31T08:57:14.093Z,6.20
2018-08-31T09:02:17.212Z,6.40
2018-08-31T09:07:20.324Z,7.97
2018-08-31T09:12:23.503Z,5.63
2018-08-31T09:17:26.595Z,5.90
2018-08-31T09:22:29.723Z,5.23
2018-08-31T09:27:33.860Z,6.60
2018-08-31T09:32:37.010Z,5.90
2018-08-31T09:37:40.095Z,6.90
2018-08-31T09:42:43.211Z,6.57
2018-08-31T09:47:46.316Z,5.83
2018-08-31T09:52:49.447Z,6.80
2018-08-31T09:57:53.556Z,6.17
2018-08-31T10:03:01.956Z,6.10
2018-08-31T10:08:05.556Z,5.93
2018-08-31T10:13:08.668Z,5.47
2018-08-31T10:18:11.828Z,5.67
2018-08-31T10:23:14.947Z,5.47
2018-08-31T10:28:18.052Z,5.43
2018-08-31T10:33:21.168Z,5.42
2018-08-31T10:38:24.279Z,6.33
2018-08-31T10:43:27.400Z,5.13
2018-08-31T10:48:30.512Z,4.30
2018-08-31T10:53:33.657Z,6.03
2018-08-31T10:58:36.776Z,6.20
2018-08-31T11:03:39.946Z,4.87
2018-08-31T11:08:43.012Z,5.30
2018-08-31T11:13:46.133Z,5.10
2018-08-31T11:18:49.270Z,4.50
2018-08-31T11:23:52.373Z,4.97
2018-08-31T11:28:55.514Z,5.13
2018-08-31T11:33:58.635Z,4.63
2018-08-31T11:39:01.746Z,5.00
2018-08-31T11:44:05.780Z,5.33
2018-08-31T11:49:08.904Z,5.30
2018-08-31T11:54:12.025Z,5.12
2018-08-31T11:59:15.204Z,5.47
2018-08-31T12:04:18.320Z,4.33
2018-08-31T12:09:21.503Z,4.20
2018-08-31T12:14:24.612Z,4.60
2018-08-31T12:19:27.709Z,5.33
2018-08-31T12:24:30.843Z,5.80
2018-08-31T12:29:33.967Z,7.33
2018-08-31T12:34:37.084Z,6.00
2018-08-31T12:39:40.277Z,4.70
2018-08-31T12:44:43.383Z,6.10
2018-08-31T12:49:46.501Z,5.43
2018-08-31T12:54:49.617Z,5.33
2018-08-31T12:59:59.287Z,5.30
2018-08-31T13:05:02.493Z,5.03
2018-08-31T13:10:05.728Z,5.72
2018-08-31T13:15:08.839Z,5.00
2018-08-31T13:20:11.964Z,5.83
2018-08-31T13:25:15.166Z,5.63
2018-08-31T13:30:18.207Z,5.30
2018-08-31T13:35:21.412Z,5.25
2018-08-31T13:40:24.520Z,6.10
2018-08-31T13:45:27.644Z,6.40
2018-08-31T13:50:30.827Z,5.73
2018-08-31T13:55:33.945Z,6.40
2018-08-31T14:00:37.154Z,5.70
2018-08-31T14:05:40.261Z,6.30
2018-08-31T14:10:43.380Z,7.20
2018-08-31T14:15:46.513Z,7.90
2018-08-31T14:20:49.633Z,7.37
2018-08-31T14:25:52.761Z,7.17
2018-08-31T14:30:55.868Z,6.90
2018-08-31T14:35:58.979Z,6.70
2018-08-31T14:41:02.104Z,6.77
2018-08-31T14:46:05.724Z,6.45
2018-08-31T14:51:08.836Z,6.80
2018-08-31T14:56:11.957Z,7.42
2018-08-31T15:01:15.109Z,6.97
2018-08-31T15:06:18.251Z,6.80
2018-08-31T15:11:21.432Z,6.60
2018-08-31T15:16:24.562Z,6.60
2018-08-31T15:21:27.773Z,6.78
2018-08-31T15:26:30.895Z,7.70
2018-08-31T15:31:34.455Z,8.93
2018-08-31T15:36:37.548Z,7.00
2018-08-31T15:41:40.672Z,8.60
2018-08-31T15:46:43.799Z,8.60
2018-08-31T15:51:46.903Z,7.70
2018-08-31T15:56:50.037Z,6.93
2018-08-31T16:01:53.192Z,8.07
2018-08-31T16:06:56.312Z,8.63
2018-08-31T16:11:59.491Z,6.77
2018-08-31T16:17:02.676Z,6.83
2018-08-31T16:22:05.798Z,9.23
2018-08-31T16:27:08.919Z,7.10
2018-08-31T16:32:12.045Z,7.67
2018-08-31T16:37:15.246Z,8.97
2018-08-31T16:42:18.425Z,6.67
2018-08-31T16:47:21.615Z,7.70
2018-08-31T16:52:24.655Z,7.20
2018-08-31T16:57:27.771Z,7.90
2018-08-31T17:02:30.893Z,7.23
2018-08-31T17:07:34.023Z,7.60
2018-08-31T17:12:37.213Z,7.00
2018-08-31T17:17:40.301Z,6.00
2018-08-31T17:22:43.416Z,7.23
2018-08-31T17:27:51.842Z,6.10
2018-08-31T17:33:00.404Z,4.93
2018-08-31T17:38:03.649Z,6.27
2018-08-31T17:43:06.768Z,6.20
2018-08-31T17:48:09.875Z,6.20
2018-08-31T17:53:12.998Z,6.42
2018-08-31T17:58:16.108Z,6.93
2018-08-31T18:03:19.224Z,5.58
2018-08-31T18:08:22.389Z,6.45
2018-08-31T18:13:25.504Z,5.50
2018-08-31T18:18:28.628Z,6.77
2018-08-31T18:23:31.774Z,6.35
2018-08-31T18:28:34.896Z,5.63
2018-08-31T18:33:38.054Z,5.37
2018-08-31T18:38:41.264Z,5.97
2018-08-31T18:43:44.373Z,5.83
2018-08-31T18:48:47.497Z,7.40
2018-08-31T18:53:50.613Z,6.03
2018-08-31T18:58:53.724Z,6.20
2018-08-31T19:03:56.839Z,6.20
2018-08-31T19:08:59.964Z,7.20
2018-08-31T19:14:03.160Z,7.27
2018-08-31T19:19:06.271Z,8.47
2018-08-31T19:24:09.396Z,9.27
2018-08-31T19:29:12.519Z,8.03
2018-08-31T19:34:15.640Z,9.75
2018-08-31T19:39:18.753Z,8.30
2018-08-31T19:44:21.863Z,7.72
2018-08-31T19:49:25.192Z,8.70
2018-08-31T19:54:28.351Z,6.20
2018-08-31T19:59:31.448Z,8.50
2018-08-31T20:04:34.637Z,8.03
2018-08-31T20:09:37.757Z,9.60
2018-08-31T20:14:40.876Z,8.60
2018-08-31T20:19:44.000Z,7.80
2018-08-31T20:24:47.124Z,9.13
2018-08-31T20:29:50.238Z,8.50
2018-08-31T20:34:53.348Z,9.07
2018-08-31T20:39:56.467Z,8.13
2018-08-31T20:44:59.585Z,8.83
2018-08-31T20:50:02.701Z,8.03
2018-08-31T20:55:06.301Z,8.70
2018-08-31T21:00:09.425Z,7.10
2018-08-31T21:05:12.540Z,7.37
2018-08-31T21:10:15.672Z,8.73
2018-08-31T21:15:18.808Z,6.95
2018-08-31T21:20:21.925Z,6.87
2018-08-31T21:25:25.047Z,8.57
2018-08-31T21:30:28.171Z,6.87
2018-08-31T21:35:31.296Z,7.37
2018-08-31T21:40:34.416Z,6.90
2018-08-31T21:45:37.548Z,8.00
2018-08-31T21:50:40.704Z,8.10
2018-08-31T21:55:43.823Z,6.78
2018-08-31T22:00:46.995Z,8.17
2018-08-31T22:05:50.116Z,7.83
2018-08-31T22:10:53.231Z,8.37
2018-08-31T22:15:56.347Z,7.40
2018-08-31T22:20:59.468Z,7.90
2018-08-31T22:26:02.624Z,7.25
2018-08-31T22:31:05.785Z,7.13
2018-08-31T22:36:08.895Z,6.60
2018-08-31T22:41:12.011Z,8.93
2018-08-31T22:46:15.136Z,8.57
2018-08-31T22:51:18.734Z,6.70
2018-08-31T22:56:21.850Z,6.55
2018-08-31T23:01:24.967Z,6.60
2018-08-31T23:06:28.079Z,6.20
2018-08-31T23:11:31.195Z,6.13
2018-08-31T23:16:34.317Z,4.90
2018-08-31T23:21:37.500Z,6.00
2018-08-31T23:26:40.630Z,5.10
2018-08-31T23:31:43.780Z,5.47
2018-08-31T23:36:47.344Z,6.10
2018-08-31T23:41:51.180Z,4.20
2018-08-31T23:46:54.292Z,4.50
2018-08-31T23:51:57.411Z,5.90
2018-08-31T23:57:00.532Z,4.77
